Gobabeb, Namibia

7:04 PM WAT on July 23, 2014 (GMT +0100)
Walvis Bay (FYWB) Elev 299 ft | 22.98 °S, 14.65 °E | Change Station

Current weather conditions updated 1 hour ago

Mostly Cloudy
Mostly Cloudy
61 °F
Feels Like 61 °F
N
7
Wind Variable Wind from West
Gusts mph

Tomorrow is forecast to be Cooler than today.

Today
High -- | Low -- °F
--% Chance of Precip.
Yesterday
High -- | Low -- °F
Precip. -- in
6:39 AM 5:33 PM
Waning Crescent, 9% visible
Pressure 30.01 in
Visibility -9999.0 miles
Clouds
Dew Point 48 °F
Humidity 63%
Rainfall 0.00 in
Snow Depth Not available.
UV Not available.
Pollen Not available.
Air Quality Not available.
Flu Activity Not available.
METAR FYWB 231700Z AUTO 28006KT //// // ////// 16/09 Q1016

More Conditions Fewer Conditions

Pressure 30.01 in
Visibility -9999.0 miles
Clouds
Dew Point 48 °F
Humidity 63%
Rainfall 0.00 in
Snow Depth Not available.
UV Not available.
Pollen Not available.
Air Quality Not available.
Flu Activity Not available.
METAR FYWB 231700Z AUTO 28006KT //// // ////// 16/09 Q1016

More Conditions Fewer Conditions

10-Day Weather Forecast

Almanac

Astronomy

Jul. 23, 2014 Rise Set
Actual Time 6:39 AM WAT 5:33 PM WAT
Civil Twilight 6:15 AM WAT 5:57 PM WAT
Nautical Twilight 5:47 AM WAT 6:25 PM WAT
Astronomical Twilight 5:20 AM WAT 6:52 PM WAT
Moon 3:39 AM WAT 2:51 PM WAT
Length of Visible Light 11h 42m
Length of Day
10h 54m
Tomorrow will be 0m 49s longer.
Waning Crescent, 9% of the Moon is Illuminated
Today
Waning Crescent
Jul 26
New
Aug 3
First Quarter
Aug 10
Full
Aug 17
Last Quarter

Today's Extremes

Country Highs Country Lows

Community

WunderPhotos

Upload Photos

1,736,692 photos uploaded!

Nearby

Snow Depth

Not available.

Earthquake Activity

City Distance Mag. Time & Date
No recent earthquake activity has been reported nearby.
Minimum magnitude displayed is 2.5.

Coastal Water Temperatures

Place Temperature
No Stations Reporting

Nearby Weather Stations

There are no personal weather stations in this area.